sensor_id;sensor_type;location;lat;lon;timestamp;P1;durP1;ratioP1;P2;durP2;ratioP2
3767;SDS011;1899;49.966;7.106;2022-12-07T05:00:59;23.52;;;15.77;;
3767;SDS011;1899;49.966;7.106;2022-12-07T05:03:24;22.93;;;15.50;;
3767;SDS011;1899;49.966;7.106;2022-12-07T05:05:49;23.13;;;16.20;;
3767;SDS011;1899;49.966;7.106;2022-12-07T05:08:15;21.70;;;15.57;;
3767;SDS011;1899;49.966;7.106;2022-12-07T05:10:40;23.57;;;16.07;;
3767;SDS011;1899;49.966;7.106;2022-12-07T05:13:05;22.40;;;15.83;;
3767;SDS011;1899;49.966;7.106;2022-12-07T05:15:30;20.33;;;14.27;;
3767;SDS011;1899;49.966;7.106;2022-12-07T05:17:55;19.05;;;13.98;;
3767;SDS011;1899;49.966;7.106;2022-12-07T05:20:21;19.33;;;13.73;;
3767;SDS011;1899;49.966;7.106;2022-12-07T05:22:46;19.30;;;13.93;;
3767;SDS011;1899;49.966;7.106;2022-12-07T05:25:12;20.00;;;14.90;;
3767;SDS011;1899;49.966;7.106;2022-12-07T05:27:37;22.60;;;15.70;;
3767;SDS011;1899;49.966;7.106;2022-12-07T05:30:03;18.77;;;14.00;;
3767;SDS011;1899;49.966;7.106;2022-12-07T05:32:28;18.75;;;13.95;;
3767;SDS011;1899;49.966;7.106;2022-12-07T05:34:53;18.80;;;14.30;;
3767;SDS011;1899;49.966;7.106;2022-12-07T05:37:19;20.52;;;14.93;;
3767;SDS011;1899;49.966;7.106;2022-12-07T05:39:45;20.47;;;14.97;;
3767;SDS011;1899;49.966;7.106;2022-12-07T05:42:10;22.70;;;15.20;;
3767;SDS011;1899;49.966;7.106;2022-12-07T05:44:39;22.85;;;15.18;;
3767;SDS011;1899;49.966;7.106;2022-12-07T05:47:05;24.13;;;16.83;;
3767;SDS011;1899;49.966;7.106;2022-12-07T05:49:30;22.37;;;15.77;;
3767;SDS011;1899;49.966;7.106;2022-12-07T05:51:55;25.37;;;16.70;;
3767;SDS011;1899;49.966;7.106;2022-12-07T05:54:21;21.10;;;15.00;;
3767;SDS011;1899;49.966;7.106;2022-12-07T05:56:46;21.50;;;14.70;;
3767;SDS011;1899;49.966;7.106;2022-12-07T05:59:11;23.73;;;15.30;;
3767;SDS011;1899;49.966;7.106;2022-12-07T06:01:58;21.65;;;14.82;;
3767;SDS011;1899;49.966;7.106;2022-12-07T06:04:24;26.35;;;17.15;;
3767;SDS011;1899;49.966;7.106;2022-12-07T06:06:50;18.15;;;13.25;;
3767;SDS011;1899;49.966;7.106;2022-12-07T06:09:15;20.97;;;15.27;;
3767;SDS011;1899;49.966;7.106;2022-12-07T06:11:40;23.67;;;16.17;;
3767;SDS011;1899;49.966;7.106;2022-12-07T06:14:24;23.00;;;14.45;;
3767;SDS011;1899;49.966;7.106;2022-12-07T06:16:49;25.30;;;16.63;;
3767;SDS011;1899;49.966;7.106;2022-12-07T06:19:15;20.70;;;15.10;;
3767;SDS011;1899;49.966;7.106;2022-12-07T06:21:41;24.45;;;15.23;;
3767;SDS011;1899;49.966;7.106;2022-12-07T06:24:06;22.25;;;16.08;;
3767;SDS011;1899;49.966;7.106;2022-12-07T06:26:31;21.30;;;14.77;;
3767;SDS011;1899;49.966;7.106;2022-12-07T06:28:57;22.23;;;16.13;;
3767;SDS011;1899;49.966;7.106;2022-12-07T06:31:22;21.60;;;15.40;;
3767;SDS011;1899;49.966;7.106;2022-12-07T06:33:47;22.60;;;16.80;;
3767;SDS011;1899;49.966;7.106;2022-12-07T06:36:13;22.20;;;15.40;;
3767;SDS011;1899;49.966;7.106;2022-12-07T06:38:38;22.88;;;16.20;;
3767;SDS011;1899;49.966;7.106;2022-12-07T06:41:03;23.75;;;15.10;;
3767;SDS011;1899;49.966;7.106;2022-12-07T06:43:29;25.65;;;16.63;;
3767;SDS011;1899;49.966;7.106;2022-12-07T06:45:54;25.95;;;17.08;;
3767;SDS011;1899;49.966;7.106;2022-12-07T06:48:20;26.53;;;16.37;;
3767;SDS011;1899;49.966;7.106;2022-12-07T06:50:45;23.73;;;15.97;;
3767;SDS011;1899;49.966;7.106;2022-12-07T06:53:11;26.40;;;16.53;;
3767;SDS011;1899;49.966;7.106;2022-12-07T06:55:36;27.33;;;17.37;;
3767;SDS011;1899;49.966;7.106;2022-12-07T06:58:01;30.10;;;17.67;;
3767;SDS011;1899;49.966;7.106;2022-12-07T07:00:27;26.17;;;17.80;;
3767;SDS011;1899;49.966;7.106;2022-12-07T07:02:52;25.53;;;16.67;;
3767;SDS011;1899;49.966;7.106;2022-12-07T07:05:18;26.00;;;17.70;;
3767;SDS011;1899;49.966;7.106;2022-12-07T07:07:43;26.70;;;17.83;;
3767;SDS011;1899;49.966;7.106;2022-12-07T07:10:08;21.90;;;15.40;;
3767;SDS011;1899;49.966;7.106;2022-12-07T07:12:34;23.20;;;16.03;;
3767;SDS011;1899;49.966;7.106;2022-12-07T07:14:59;26.00;;;17.40;;
3767;SDS011;1899;49.966;7.106;2022-12-07T07:17:24;26.57;;;16.43;;
3767;SDS011;1899;49.966;7.106;2022-12-07T07:19:49;24.45;;;16.30;;
3767;SDS011;1899;49.966;7.106;2022-12-07T07:22:14;26.07;;;16.70;;
3767;SDS011;1899;49.966;7.106;2022-12-07T07:24:40;23.93;;;15.53;;
3767;SDS011;1899;49.966;7.106;2022-12-07T07:27:05;23.17;;;15.63;;
3767;SDS011;1899;49.966;7.106;2022-12-07T07:29:31;25.40;;;17.77;;
3767;SDS011;1899;49.966;7.106;2022-12-07T07:31:56;25.20;;;16.40;;
3767;SDS011;1899;49.966;7.106;2022-12-07T07:34:21;22.00;;;15.20;;
3767;SDS011;1899;49.966;7.106;2022-12-07T07:36:46;22.93;;;15.57;;
3767;SDS011;1899;49.966;7.106;2022-12-07T07:39:12;23.40;;;15.93;;
3767;SDS011;1899;49.966;7.106;2022-12-07T07:41:40;23.47;;;15.03;;
3767;SDS011;1899;49.966;7.106;2022-12-07T07:44:05;26.50;;;16.40;;
3767;SDS011;1899;49.966;7.106;2022-12-07T07:46:30;23.47;;;15.67;;
3767;SDS011;1899;49.966;7.106;2022-12-07T07:48:58;23.42;;;15.35;;
3767;SDS011;1899;49.966;7.106;2022-12-07T07:51:23;24.20;;;16.40;;
3767;SDS011;1899;49.966;7.106;2022-12-07T07:53:48;23.47;;;16.17;;
3767;SDS011;1899;49.966;7.106;2022-12-07T07:56:13;22.77;;;15.63;;
3767;SDS011;1899;49.966;7.106;2022-12-07T07:58:39;22.13;;;15.27;;
3767;SDS011;1899;49.966;7.106;2022-12-07T08:01:07;21.60;;;15.77;;
3767;SDS011;1899;49.966;7.106;2022-12-07T08:03:32;27.38;;;16.92;;
3767;SDS011;1899;49.966;7.106;2022-12-07T08:05:57;24.90;;;16.77;;
3767;SDS011;1899;49.966;7.106;2022-12-07T08:08:23;21.53;;;14.80;;
3767;SDS011;1899;49.966;7.106;2022-12-07T08:10:48;24.40;;;15.27;;
3767;SDS011;1899;49.966;7.106;2022-12-07T08:13:15;25.07;;;16.60;;
3767;SDS011;1899;49.966;7.106;2022-12-07T08:15:41;21.92;;;15.02;;
3767;SDS011;1899;49.966;7.106;2022-12-07T08:18:06;23.77;;;15.45;;
3767;SDS011;1899;49.966;7.106;2022-12-07T08:20:33;24.35;;;15.40;;
3767;SDS011;1899;49.966;7.106;2022-12-07T08:22:58;25.60;;;15.98;;
3767;SDS011;1899;49.966;7.106;2022-12-07T08:25:24;24.50;;;15.93;;
3767;SDS011;1899;49.966;7.106;2022-12-07T08:27:50;22.38;;;15.00;;
3767;SDS011;1899;49.966;7.106;2022-12-07T08:30:16;26.50;;;16.37;;
3767;SDS011;1899;49.966;7.106;2022-12-07T08:32:41;23.10;;;15.10;;
3767;SDS011;1899;49.966;7.106;2022-12-07T08:35:07;23.13;;;14.80;;
3767;SDS011;1899;49.966;7.106;2022-12-07T08:37:32;23.30;;;15.02;;
3767;SDS011;1899;49.966;7.106;2022-12-07T08:39:58;21.40;;;14.98;;
3767;SDS011;1899;49.966;7.106;2022-12-07T08:42:23;20.23;;;14.10;;
3767;SDS011;1899;49.966;7.106;2022-12-07T08:44:52;20.90;;;14.20;;
3767;SDS011;1899;49.966;7.106;2022-12-07T08:47:18;19.58;;;13.68;;
3767;SDS011;1899;49.966;7.106;2022-12-07T08:49:44;23.55;;;15.40;;
3767;SDS011;1899;49.966;7.106;2022-12-07T08:52:10;22.17;;;14.85;;
3767;SDS011;1899;49.966;7.106;2022-12-07T08:54:36;21.57;;;15.47;;
3767;SDS011;1899;49.966;7.106;2022-12-07T08:57:03;21.03;;;14.60;;
3767;SDS011;1899;49.966;7.106;2022-12-07T08:59:29;23.00;;;14.90;;
3767;SDS011;1899;49.966;7.106;2022-12-07T09:01:55;19.77;;;14.30;;
3767;SDS011;1899;49.966;7.106;2022-12-07T09:04:20;25.37;;;15.87;;
3767;SDS011;1899;49.966;7.106;2022-12-07T09:06:46;17.57;;;13.40;;
3767;SDS011;1899;49.966;7.106;2022-12-07T09:09:11;18.95;;;13.20;;
3767;SDS011;1899;49.966;7.106;2022-12-07T09:11:38;19.52;;;13.70;;
3767;SDS011;1899;49.966;7.106;2022-12-07T09:14:04;19.67;;;13.40;;
3767;SDS011;1899;49.966;7.106;2022-12-07T09:16:29;19.77;;;14.20;;
3767;SDS011;1899;49.966;7.106;2022-12-07T09:18:54;20.60;;;14.27;;
3767;SDS011;1899;49.966;7.106;2022-12-07T09:21:20;18.42;;;14.02;;
3767;SDS011;1899;49.966;7.106;2022-12-07T09:23:45;19.77;;;13.77;;
3767;SDS011;1899;49.966;7.106;2022-12-07T09:26:10;18.17;;;12.23;;
3767;SDS011;1899;49.966;7.106;2022-12-07T09:28:35;18.77;;;13.47;;
3767;SDS011;1899;49.966;7.106;2022-12-07T09:31:02;17.63;;;12.23;;
3767;SDS011;1899;49.966;7.106;2022-12-07T09:33:27;17.65;;;12.98;;
3767;SDS011;1899;49.966;7.106;2022-12-07T09:35:52;15.67;;;12.33;;
3767;SDS011;1899;49.966;7.106;2022-12-07T09:38:18;16.97;;;12.90;;
3767;SDS011;1899;49.966;7.106;2022-12-07T09:40:44;18.77;;;13.32;;
3767;SDS011;1899;49.966;7.106;2022-12-07T09:43:17;19.40;;;12.77;;
3767;SDS011;1899;49.966;7.106;2022-12-07T09:45:43;19.67;;;12.98;;
3767;SDS011;1899;49.966;7.106;2022-12-07T09:48:22;18.35;;;12.05;;
3767;SDS011;1899;49.966;7.106;2022-12-07T09:50:49;15.95;;;11.63;;
3767;SDS011;1899;49.966;7.106;2022-12-07T09:53:34;15.30;;;11.32;;
3767;SDS011;1899;49.966;7.106;2022-12-07T09:56:01;16.05;;;10.88;;
3767;SDS011;1899;49.966;7.106;2022-12-07T09:58:26;13.77;;;10.90;;
3767;SDS011;1899;49.966;7.106;2022-12-07T10:01:15;15.07;;;10.75;;
3767;SDS011;1899;49.966;7.106;2022-12-07T10:03:39;14.50;;;11.10;;
3767;SDS011;1899;49.966;7.106;2022-12-07T10:06:05;14.70;;;10.40;;
3767;SDS011;1899;49.966;7.106;2022-12-07T10:08:31;15.02;;;11.15;;
3767;SDS011;1899;49.966;7.106;2022-12-07T10:10:56;15.40;;;11.67;;
3767;SDS011;1899;49.966;7.106;2022-12-07T10:13:33;12.57;;;10.00;;
3767;SDS011;1899;49.966;7.106;2022-12-07T10:15:58;12.25;;;9.80;;
3767;SDS011;1899;49.966;7.106;2022-12-07T10:21:03;12.27;;;9.90;;
3767;SDS011;1899;49.966;7.106;2022-12-07T10:23:28;14.02;;;9.23;;
3767;SDS011;1899;49.966;7.106;2022-12-07T10:25:53;14.20;;;10.10;;
3767;SDS011;1899;49.966;7.106;2022-12-07T10:28:20;13.35;;;9.70;;
3767;SDS011;1899;49.966;7.106;2022-12-07T10:35:54;13.27;;;9.60;;
3767;SDS011;1899;49.966;7.106;2022-12-07T10:38:19;11.40;;;8.80;;
3767;SDS011;1899;49.966;7.106;2022-12-07T10:40:45;10.53;;;8.50;;
3767;SDS011;1899;49.966;7.106;2022-12-07T10:58:49;12.57;;;9.27;;
3767;SDS011;1899;49.966;7.106;2022-12-07T11:04:16;11.57;;;9.15;;
3767;SDS011;1899;49.966;7.106;2022-12-07T11:17:05;11.20;;;7.90;;
3767;SDS011;1899;49.966;7.106;2022-12-07T11:19:44;12.02;;;8.52;;
3767;SDS011;1899;49.966;7.106;2022-12-07T11:24:58;11.02;;;7.30;;
3767;SDS011;1899;49.966;7.106;2022-12-07T11:30:16;8.93;;;6.85;;
3767;SDS011;1899;49.966;7.106;2022-12-07T11:38:23;12.50;;;6.90;;
3767;SDS011;1899;49.966;7.106;2022-12-07T11:40:49;9.98;;;6.60;;
3767;SDS011;1899;49.966;7.106;2022-12-07T11:43:31;10.27;;;7.70;;
3767;SDS011;1899;49.966;7.106;2022-12-07T11:46:08;10.27;;;8.00;;
3767;SDS011;1899;49.966;7.106;2022-12-07T11:48:36;10.45;;;7.60;;
3767;SDS011;1899;49.966;7.106;2022-12-07T11:51:03;10.77;;;7.00;;
3767;SDS011;1899;49.966;7.106;2022-12-07T11:53:38;8.52;;;7.10;;
3767;SDS011;1899;49.966;7.106;2022-12-07T12:03:38;9.60;;;7.40;;
3767;SDS011;1899;49.966;7.106;2022-12-07T12:06:05;10.10;;;7.53;;
3767;SDS011;1899;49.966;7.106;2022-12-07T12:08:33;8.95;;;6.97;;
3767;SDS011;1899;49.966;7.106;2022-12-07T12:11:05;9.73;;;6.60;;
3767;SDS011;1899;49.966;7.106;2022-12-07T12:20:58;8.27;;;6.40;;
3767;SDS011;1899;49.966;7.106;2022-12-07T12:25:54;10.20;;;7.30;;
3767;SDS011;1899;49.966;7.106;2022-12-07T12:28:28;9.30;;;6.88;;
3767;SDS011;1899;49.966;7.106;2022-12-07T12:31:14;9.65;;;7.13;;
3767;SDS011;1899;49.966;7.106;2022-12-07T12:33:46;8.18;;;6.70;;
3767;SDS011;1899;49.966;7.106;2022-12-07T12:41:11;8.50;;;6.50;;
3767;SDS011;1899;49.966;7.106;2022-12-07T12:43:56;9.43;;;6.07;;
3767;SDS011;1899;49.966;7.106;2022-12-07T12:51:40;8.15;;;5.88;;
3767;SDS011;1899;49.966;7.106;2022-12-07T12:54:10;6.80;;;5.90;;
3767;SDS011;1899;49.966;7.106;2022-12-07T13:01:47;8.07;;;5.67;;
3767;SDS011;1899;49.966;7.106;2022-12-07T13:04:24;7.30;;;5.70;;
3767;SDS011;1899;49.966;7.106;2022-12-07T13:06:50;7.93;;;5.80;;
3767;SDS011;1899;49.966;7.106;2022-12-07T13:09:22;6.80;;;5.63;;
3767;SDS011;1899;49.966;7.106;2022-12-07T13:11:48;6.00;;;4.90;;
3767;SDS011;1899;49.966;7.106;2022-12-07T13:16:58;8.00;;;6.00;;
3767;SDS011;1899;49.966;7.106;2022-12-07T13:24:54;7.05;;;4.88;;
3767;SDS011;1899;49.966;7.106;2022-12-07T13:27:20;7.50;;;5.78;;
3767;SDS011;1899;49.966;7.106;2022-12-07T13:29:46;7.50;;;4.50;;
3767;SDS011;1899;49.966;7.106;2022-12-07T13:32:29;7.78;;;5.43;;
3767;SDS011;1899;49.966;7.106;2022-12-07T13:34:55;7.20;;;5.70;;
3767;SDS011;1899;49.966;7.106;2022-12-07T13:39:49;8.60;;;5.20;;
3767;SDS011;1899;49.966;7.106;2022-12-07T13:42:56;9.50;;;5.53;;
3767;SDS011;1899;49.966;7.106;2022-12-07T13:45:20;9.13;;;5.72;;
3767;SDS011;1899;49.966;7.106;2022-12-07T13:47:52;6.57;;;5.50;;
3767;SDS011;1899;49.966;7.106;2022-12-07T13:52:50;7.32;;;4.97;;
3767;SDS011;1899;49.966;7.106;2022-12-07T13:55:19;7.03;;;5.60;;
3767;SDS011;1899;49.966;7.106;2022-12-07T13:57:44;7.03;;;5.20;;
3767;SDS011;1899;49.966;7.106;2022-12-07T14:00:16;7.25;;;5.65;;
3767;SDS011;1899;49.966;7.106;2022-12-07T14:02:55;6.90;;;5.00;;
3767;SDS011;1899;49.966;7.106;2022-12-07T14:05:24;6.72;;;4.70;;
3767;SDS011;1899;49.966;7.106;2022-12-07T14:07:57;6.88;;;5.22;;
3767;SDS011;1899;49.966;7.106;2022-12-07T14:10:25;7.15;;;5.50;;
3767;SDS011;1899;49.966;7.106;2022-12-07T14:12:50;7.70;;;5.30;;
3767;SDS011;1899;49.966;7.106;2022-12-07T14:15:20;8.17;;;6.10;;
3767;SDS011;1899;49.966;7.106;2022-12-07T14:17:50;9.70;;;5.80;;
3767;SDS011;1899;49.966;7.106;2022-12-07T14:20:32;7.00;;;5.80;;
3767;SDS011;1899;49.966;7.106;2022-12-07T14:22:57;9.40;;;5.70;;
3767;SDS011;1899;49.966;7.106;2022-12-07T14:25:23;10.13;;;5.93;;
3767;SDS011;1899;49.966;7.106;2022-12-07T14:30:15;7.07;;;5.53;;
3767;SDS011;1899;49.966;7.106;2022-12-07T14:32:40;8.68;;;5.80;;
3767;SDS011;1899;49.966;7.106;2022-12-07T14:35:10;11.13;;;6.40;;
3767;SDS011;1899;49.966;7.106;2022-12-07T14:37:36;8.32;;;6.05;;
3767;SDS011;1899;49.966;7.106;2022-12-07T14:40:01;7.93;;;6.55;;
3767;SDS011;1899;49.966;7.106;2022-12-07T14:42:27;8.17;;;5.87;;
3767;SDS011;1899;49.966;7.106;2022-12-07T14:44:53;9.57;;;6.30;;
3767;SDS011;1899;49.966;7.106;2022-12-07T14:47:18;7.50;;;6.30;;
3767;SDS011;1899;49.966;7.106;2022-12-07T14:49:44;12.03;;;6.87;;
3767;SDS011;1899;49.966;7.106;2022-12-07T14:52:28;10.83;;;6.60;;
3767;SDS011;1899;49.966;7.106;2022-12-07T14:54:55;8.93;;;6.40;;
3767;SDS011;1899;49.966;7.106;2022-12-07T14:57:20;8.20;;;6.23;;
3767;SDS011;1899;49.966;7.106;2022-12-07T14:59:45;10.07;;;6.65;;
3767;SDS011;1899;49.966;7.106;2022-12-07T15:02:12;9.53;;;6.73;;
3767;SDS011;1899;49.966;7.106;2022-12-07T15:04:37;9.50;;;6.60;;
3767;SDS011;1899;49.966;7.106;2022-12-07T15:07:03;9.83;;;6.67;;
3767;SDS011;1899;49.966;7.106;2022-12-07T15:09:29;10.30;;;6.68;;
3767;SDS011;1899;49.966;7.106;2022-12-07T15:11:54;9.93;;;6.70;;
3767;SDS011;1899;49.966;7.106;2022-12-07T15:14:19;8.50;;;6.20;;
3767;SDS011;1899;49.966;7.106;2022-12-07T15:16:45;9.67;;;7.00;;
3767;SDS011;1899;49.966;7.106;2022-12-07T15:19:14;9.30;;;6.80;;
3767;SDS011;1899;49.966;7.106;2022-12-07T15:21:40;8.93;;;6.90;;
3767;SDS011;1899;49.966;7.106;2022-12-07T15:24:05;9.65;;;6.32;;
3767;SDS011;1899;49.966;7.106;2022-12-07T15:26:31;7.90;;;6.00;;
3767;SDS011;1899;49.966;7.106;2022-12-07T15:28:56;8.30;;;6.40;;
3767;SDS011;1899;49.966;7.106;2022-12-07T15:31:22;7.67;;;6.33;;
3767;SDS011;1899;49.966;7.106;2022-12-07T15:33:47;9.60;;;6.30;;
3767;SDS011;1899;49.966;7.106;2022-12-07T15:36:18;8.50;;;6.47;;
3767;SDS011;1899;49.966;7.106;2022-12-07T15:38:44;12.07;;;6.80;;
3767;SDS011;1899;49.966;7.106;2022-12-07T15:41:09;7.43;;;5.80;;
3767;SDS011;1899;49.966;7.106;2022-12-07T15:43:35;7.82;;;6.05;;
3767;SDS011;1899;49.966;7.106;2022-12-07T15:46:19;8.10;;;5.88;;
3767;SDS011;1899;49.966;7.106;2022-12-07T15:48:45;9.63;;;7.33;;
3767;SDS011;1899;49.966;7.106;2022-12-07T15:51:10;10.85;;;6.95;;
3767;SDS011;1899;49.966;7.106;2022-12-07T15:53:36;10.07;;;6.53;;
3767;SDS011;1899;49.966;7.106;2022-12-07T15:56:01;10.57;;;6.70;;
3767;SDS011;1899;49.966;7.106;2022-12-07T15:58:26;10.03;;;5.90;;
3767;SDS011;1899;49.966;7.106;2022-12-07T16:00:52;8.70;;;5.60;;
3767;SDS011;1899;49.966;7.106;2022-12-07T16:03:17;7.40;;;5.63;;
3767;SDS011;1899;49.966;7.106;2022-12-07T16:05:48;8.73;;;5.63;;
3767;SDS011;1899;49.966;7.106;2022-12-07T16:08:13;9.30;;;5.40;;
3767;SDS011;1899;49.966;7.106;2022-12-07T16:10:38;7.63;;;5.80;;
3767;SDS011;1899;49.966;7.106;2022-12-07T16:13:06;9.30;;;5.90;;
3767;SDS011;1899;49.966;7.106;2022-12-07T16:15:32;9.50;;;6.10;;
3767;SDS011;1899;49.966;7.106;2022-12-07T16:17:57;9.13;;;6.13;;
3767;SDS011;1899;49.966;7.106;2022-12-07T16:20:22;7.23;;;5.30;;
3767;SDS011;1899;49.966;7.106;2022-12-07T16:22:50;8.90;;;6.40;;
3767;SDS011;1899;49.966;7.106;2022-12-07T16:25:15;7.70;;;6.10;;
3767;SDS011;1899;49.966;7.106;2022-12-07T16:27:41;7.90;;;5.73;;
3767;SDS011;1899;49.966;7.106;2022-12-07T16:30:06;9.13;;;7.10;;
3767;SDS011;1899;49.966;7.106;2022-12-07T16:32:32;9.10;;;6.63;;
3767;SDS011;1899;49.966;7.106;2022-12-07T16:34:57;10.77;;;6.50;;
3767;SDS011;1899;49.966;7.106;2022-12-07T16:37:22;9.77;;;7.50;;
3767;SDS011;1899;49.966;7.106;2022-12-07T16:39:47;10.40;;;6.67;;
3767;SDS011;1899;49.966;7.106;2022-12-07T16:42:12;10.73;;;7.57;;
3767;SDS011;1899;49.966;7.106;2022-12-07T16:44:38;12.33;;;7.50;;
3767;SDS011;1899;49.966;7.106;2022-12-07T16:47:04;10.30;;;6.80;;
3767;SDS011;1899;49.966;7.106;2022-12-07T16:49:29;10.20;;;7.10;;
3767;SDS011;1899;49.966;7.106;2022-12-07T16:51:54;11.77;;;7.70;;
3767;SDS011;1899;49.966;7.106;2022-12-07T16:54:19;9.90;;;7.50;;
3767;SDS011;1899;49.966;7.106;2022-12-07T16:56:45;9.17;;;7.37;;
3767;SDS011;1899;49.966;7.106;2022-12-07T16:59:10;7.03;;;5.77;;
3767;SDS011;1899;49.966;7.106;2022-12-07T17:01:35;10.10;;;6.80;;
3767;SDS011;1899;49.966;7.106;2022-12-07T17:04:01;8.30;;;6.10;;
3767;SDS011;1899;49.966;7.106;2022-12-07T17:06:27;7.47;;;5.78;;
3767;SDS011;1899;49.966;7.106;2022-12-07T17:08:53;10.37;;;6.00;;
3767;SDS011;1899;49.966;7.106;2022-12-07T17:11:19;6.37;;;5.37;;
3767;SDS011;1899;49.966;7.106;2022-12-07T17:13:45;8.43;;;5.23;;
3767;SDS011;1899;49.966;7.106;2022-12-07T17:16:29;9.88;;;6.97;;
3767;SDS011;1899;49.966;7.106;2022-12-07T17:18:54;9.07;;;6.17;;
3767;SDS011;1899;49.966;7.106;2022-12-07T17:21:20;9.63;;;7.03;;
3767;SDS011;1899;49.966;7.106;2022-12-07T17:23:45;8.57;;;6.93;;
3767;SDS011;1899;49.966;7.106;2022-12-07T17:26:12;9.07;;;6.40;;
3767;SDS011;1899;49.966;7.106;2022-12-07T17:28:40;9.18;;;6.38;;
3767;SDS011;1899;49.966;7.106;2022-12-07T17:31:07;7.53;;;6.20;;
3767;SDS011;1899;49.966;7.106;2022-12-07T17:33:32;8.77;;;6.80;;
3767;SDS011;1899;49.966;7.106;2022-12-07T17:35:58;9.57;;;6.33;;
3767;SDS011;1899;49.966;7.106;2022-12-07T17:38:25;7.10;;;6.07;;
3767;SDS011;1899;49.966;7.106;2022-12-07T17:40:50;11.60;;;5.28;;
3767;SDS011;1899;49.966;7.106;2022-12-07T17:43:15;9.43;;;5.83;;
3767;SDS011;1899;49.966;7.106;2022-12-07T17:45:41;7.07;;;5.30;;
3767;SDS011;1899;49.966;7.106;2022-12-07T17:48:06;7.90;;;5.40;;
3767;SDS011;1899;49.966;7.106;2022-12-07T17:50:31;7.00;;;5.57;;
3767;SDS011;1899;49.966;7.106;2022-12-07T17:53:15;8.40;;;5.85;;
3767;SDS011;1899;49.966;7.106;2022-12-07T17:55:40;9.43;;;6.03;;
3767;SDS011;1899;49.966;7.106;2022-12-07T17:58:05;7.00;;;5.80;;
3767;SDS011;1899;49.966;7.106;2022-12-07T18:00:31;9.27;;;5.73;;
3767;SDS011;1899;49.966;7.106;2022-12-07T18:03:02;7.50;;;5.80;;
3767;SDS011;1899;49.966;7.106;2022-12-07T18:05:27;8.13;;;5.40;;
3767;SDS011;1899;49.966;7.106;2022-12-07T18:07:52;7.80;;;5.40;;
3767;SDS011;1899;49.966;7.106;2022-12-07T18:10:19;9.02;;;5.32;;
3767;SDS011;1899;49.966;7.106;2022-12-07T18:12:44;6.97;;;5.40;;
3767;SDS011;1899;49.966;7.106;2022-12-07T18:15:09;8.53;;;5.30;;
3767;SDS011;1899;49.966;7.106;2022-12-07T18:17:35;7.97;;;6.10;;
3767;SDS011;1899;49.966;7.106;2022-12-07T18:20:00;8.23;;;6.10;;
3767;SDS011;1899;49.966;7.106;2022-12-07T18:22:25;7.85;;;5.40;;
3767;SDS011;1899;49.966;7.106;2022-12-07T18:24:51;6.65;;;5.70;;
3767;SDS011;1899;49.966;7.106;2022-12-07T18:27:17;7.57;;;5.43;;
3767;SDS011;1899;49.966;7.106;2022-12-07T18:29:42;8.77;;;5.80;;
3767;SDS011;1899;49.966;7.106;2022-12-07T18:32:07;13.10;;;6.30;;
3767;SDS011;1899;49.966;7.106;2022-12-07T18:34:32;8.00;;;6.20;;
3767;SDS011;1899;49.966;7.106;2022-12-07T18:36:58;9.93;;;6.40;;
3767;SDS011;1899;49.966;7.106;2022-12-07T18:39:23;8.68;;;6.40;;
3767;SDS011;1899;49.966;7.106;2022-12-07T18:41:48;9.27;;;6.40;;
3767;SDS011;1899;49.966;7.106;2022-12-07T18:44:14;9.10;;;6.80;;
3767;SDS011;1899;49.966;7.106;2022-12-07T18:46:40;8.13;;;6.60;;
3767;SDS011;1899;49.966;7.106;2022-12-07T18:49:07;9.25;;;6.65;;
3767;SDS011;1899;49.966;7.106;2022-12-07T18:51:32;10.98;;;7.10;;
3767;SDS011;1899;49.966;7.106;2022-12-07T18:53:58;7.47;;;6.60;;
3767;SDS011;1899;49.966;7.106;2022-12-07T18:56:24;8.77;;;7.03;;
3767;SDS011;1899;49.966;7.106;2022-12-07T18:58:51;8.93;;;6.80;;
3767;SDS011;1899;49.966;7.106;2022-12-07T19:01:34;11.55;;;7.25;;
3767;SDS011;1899;49.966;7.106;2022-12-07T19:04:00;9.80;;;7.30;;
3767;SDS011;1899;49.966;7.106;2022-12-07T19:06:26;12.07;;;7.97;;
3767;SDS011;1899;49.966;7.106;2022-12-07T19:08:52;11.77;;;7.77;;
3767;SDS011;1899;49.966;7.106;2022-12-07T19:11:21;8.60;;;7.32;;
3767;SDS011;1899;49.966;7.106;2022-12-07T19:14:05;14.63;;;9.63;;
3767;SDS011;1899;49.966;7.106;2022-12-07T19:16:31;17.07;;;11.17;;
3767;SDS011;1899;49.966;7.106;2022-12-07T19:18:56;15.93;;;12.27;;
3767;SDS011;1899;49.966;7.106;2022-12-07T19:21:21;17.87;;;13.37;;
3767;SDS011;1899;49.966;7.106;2022-12-07T19:23:46;19.30;;;12.53;;
3767;SDS011;1899;49.966;7.106;2022-12-07T19:26:12;16.97;;;12.17;;
3767;SDS011;1899;49.966;7.106;2022-12-07T19:28:37;13.60;;;9.93;;
3767;SDS011;1899;49.966;7.106;2022-12-07T19:31:05;13.77;;;10.00;;
3767;SDS011;1899;49.966;7.106;2022-12-07T19:33:31;12.85;;;9.13;;
3767;SDS011;1899;49.966;7.106;2022-12-07T19:35:56;14.97;;;9.43;;
3767;SDS011;1899;49.966;7.106;2022-12-07T19:38:21;10.53;;;8.27;;
3767;SDS011;1899;49.966;7.106;2022-12-07T19:40:47;12.90;;;8.73;;
3767;SDS011;1899;49.966;7.106;2022-12-07T19:43:12;14.65;;;8.70;;
3767;SDS011;1899;49.966;7.106;2022-12-07T19:45:37;10.60;;;8.53;;
3767;SDS011;1899;49.966;7.106;2022-12-07T19:48:02;11.33;;;8.50;;
3767;SDS011;1899;49.966;7.106;2022-12-07T19:50:28;9.87;;;7.77;;
3767;SDS011;1899;49.966;7.106;2022-12-07T19:52:53;10.95;;;8.10;;
3767;SDS011;1899;49.966;7.106;2022-12-07T19:55:20;13.07;;;9.00;;
3767;SDS011;1899;49.966;7.106;2022-12-07T19:57:45;12.27;;;8.23;;
3767;SDS011;1899;49.966;7.106;2022-12-07T20:00:10;12.03;;;9.10;;
3767;SDS011;1899;49.966;7.106;2022-12-07T20:02:36;13.63;;;9.40;;
3767;SDS011;1899;49.966;7.106;2022-12-07T20:05:01;13.73;;;8.87;;
3767;SDS011;1899;49.966;7.106;2022-12-07T20:07:26;11.90;;;8.73;;
3767;SDS011;1899;49.966;7.106;2022-12-07T20:09:52;12.10;;;9.20;;
3767;SDS011;1899;49.966;7.106;2022-12-07T20:12:17;13.43;;;9.70;;
3767;SDS011;1899;49.966;7.106;2022-12-07T20:15:01;13.43;;;9.50;;
3767;SDS011;1899;49.966;7.106;2022-12-07T20:17:26;14.37;;;9.20;;
3767;SDS011;1899;49.966;7.106;2022-12-07T20:19:51;13.20;;;9.50;;
3767;SDS011;1899;49.966;7.106;2022-12-07T20:22:16;14.80;;;9.77;;
3767;SDS011;1899;49.966;7.106;2022-12-07T20:24:42;13.17;;;9.53;;
3767;SDS011;1899;49.966;7.106;2022-12-07T20:27:07;13.77;;;9.10;;
3767;SDS011;1899;49.966;7.106;2022-12-07T20:29:32;12.90;;;9.40;;
3767;SDS011;1899;49.966;7.106;2022-12-07T20:31:58;14.30;;;9.60;;
3767;SDS011;1899;49.966;7.106;2022-12-07T20:34:23;13.75;;;10.30;;
3767;SDS011;1899;49.966;7.106;2022-12-07T20:36:50;14.05;;;10.77;;
3767;SDS011;1899;49.966;7.106;2022-12-07T20:39:15;15.53;;;11.23;;
3767;SDS011;1899;49.966;7.106;2022-12-07T20:41:41;20.15;;;12.75;;
3767;SDS011;1899;49.966;7.106;2022-12-07T20:44:25;18.38;;;12.85;;
3767;SDS011;1899;49.966;7.106;2022-12-07T20:46:50;16.30;;;11.50;;
3767;SDS011;1899;49.966;7.106;2022-12-07T20:49:16;17.33;;;12.20;;
3767;SDS011;1899;49.966;7.106;2022-12-07T20:51:42;16.70;;;12.35;;
3767;SDS011;1899;49.966;7.106;2022-12-07T20:54:08;17.57;;;12.00;;
3767;SDS011;1899;49.966;7.106;2022-12-07T20:56:33;17.07;;;12.47;;
3767;SDS011;1899;49.966;7.106;2022-12-07T20:59:00;17.95;;;12.32;;
